createdAt,value
2022-12-11T00:02:01.649Z,100554.69
2022-12-11T00:04:03.335Z,100557.81
2022-12-11T00:06:06.464Z,100551.88
2022-12-11T00:08:08.181Z,100550.94
2022-12-11T00:10:09.909Z,100538.44
2022-12-11T00:12:11.791Z,100537.41
2022-12-11T00:14:15.568Z,100545.66
2022-12-11T00:16:25.281Z,100547.28
2022-12-11T00:18:28.396Z,100553.66
2022-12-11T00:20:30.078Z,100545.28
2022-12-11T00:22:34.565Z,100538.22
2022-12-11T00:24:36.136Z,100544.75
2022-12-11T00:26:38.173Z,100540.44
2022-12-11T00:28:39.803Z,100529.19
2022-12-11T00:30:43.068Z,100544.22
2022-12-11T00:32:44.607Z,100540.81
2022-12-11T00:34:46.183Z,100545.94
2022-12-11T00:36:48.459Z,100536.25
2022-12-11T00:38:50.694Z,100549.19
2022-12-11T00:40:52.261Z,100540.66
2022-12-11T00:42:53.789Z,100534.56
2022-12-11T00:44:55.325Z,100540.63
2022-12-11T00:46:58.191Z,100532.38
2022-12-11T00:49:00.045Z,100542.31
2022-12-11T00:51:01.723Z,100543.13
2022-12-11T00:53:03.987Z,100542.50
2022-12-11T00:55:06.154Z,100532.63
2022-12-11T00:57:07.761Z,100542.31
2022-12-11T00:59:09.499Z,100543.06
2022-12-11T01:01:13.603Z,100533.31
2022-12-11T01:03:17.580Z,100531.56
2022-12-11T01:05:19.194Z,100531.25
2022-12-11T01:07:20.769Z,100539.75
2022-12-11T01:09:22.287Z,100539.69
2022-12-11T01:11:25.885Z,100534.78
2022-12-11T01:13:27.429Z,100542.56
2022-12-11T01:15:30.541Z,100539.06
2022-12-11T01:17:32.056Z,100548.69
2022-12-11T01:19:35.084Z,100549.50
2022-12-11T01:21:36.764Z,100543.41
2022-12-11T01:23:38.795Z,100543.88
2022-12-11T01:25:41.655Z,100546.69
2022-12-11T01:27:47.061Z,100538.88
2022-12-11T01:29:48.928Z,100535.28
2022-12-11T01:31:50.480Z,100554.59
2022-12-11T01:33:54.105Z,100542.41
2022-12-11T01:35:57.027Z,100546.59
2022-12-11T01:37:58.567Z,100553.72
2022-12-11T01:40:00.817Z,100541.81
2022-12-11T01:42:02.322Z,100542.44
2022-12-11T01:44:07.352Z,100544.84
2022-12-11T01:46:08.935Z,100542.25
2022-12-11T01:48:14.242Z,100551.19
2022-12-11T01:50:16.533Z,100543.41
2022-12-11T01:52:31.042Z,100547.50
2022-12-11T01:54:32.559Z,100543.84
2022-12-11T01:56:35.832Z,100545.75
2022-12-11T01:58:42.309Z,100551.22
2022-12-11T02:00:43.849Z,100553.53
2022-12-11T02:02:45.460Z,100553.72
2022-12-11T02:04:47.653Z,100545.69
2022-12-11T02:06:50.881Z,100549.66
2022-12-11T02:08:53.978Z,100542.44
2022-12-11T02:11:05.315Z,100531.25
2022-12-11T02:13:14.664Z,100555.56
2022-12-11T02:15:25.012Z,100552.72
2022-12-11T02:17:35.181Z,100551.00
2022-12-11T02:19:49.528Z,100544.03
2022-12-11T02:21:53.619Z,100557.13
2022-12-11T02:24:23.241Z,100552.91
2022-12-11T02:26:54.619Z,100542.41
2022-12-11T02:28:59.325Z,100553.72
2022-12-11T02:31:07.185Z,100538.03
2022-12-11T02:33:11.824Z,100558.63
2022-12-11T02:35:17.845Z,100549.38
2022-12-11T02:37:22.778Z,100530.97
2022-12-11T02:39:27.350Z,100551.09
2022-12-11T02:41:30.189Z,100536.31
2022-12-11T02:43:34.304Z,100542.63
2022-12-11T02:45:40.381Z,100526.78
2022-12-11T02:47:46.138Z,100535.34
2022-12-11T02:49:50.029Z,100543.50
2022-12-11T02:51:52.843Z,100547.72
2022-12-11T02:53:57.851Z,100541.53
2022-12-11T02:56:07.836Z,100539.59
2022-12-11T02:58:15.766Z,100544.34
2022-12-11T03:00:17.647Z,100543.53
2022-12-11T03:02:20.645Z,100533.84
2022-12-11T03:04:22.304Z,100533.78
2022-12-11T03:06:28.870Z,100537.47
2022-12-11T03:08:31.317Z,100539.72
2022-12-11T03:10:32.938Z,100540.47
2022-12-11T03:12:37.241Z,100535.34
2022-12-11T03:14:40.483Z,100526.28
2022-12-11T03:16:53.257Z,100533.09
2022-12-11T03:19:02.346Z,100541.34
2022-12-11T03:21:07.892Z,100539.63
2022-12-11T03:23:18.105Z,100543.44
2022-12-11T03:25:22.605Z,100547.00
2022-12-11T03:27:30.327Z,100540.97
2022-12-11T03:29:37.275Z,100544.25
2022-12-11T03:31:43.360Z,100539.22
2022-12-11T03:33:48.624Z,100529.53
2022-12-11T03:35:54.013Z,100553.28
2022-12-11T03:37:58.040Z,100546.34
2022-12-11T03:40:04.506Z,100539.28
2022-12-11T03:42:10.145Z,100542.66
2022-12-11T03:44:12.939Z,100538.97
2022-12-11T03:46:16.911Z,100541.50
2022-12-11T03:48:19.772Z,100534.41
2022-12-11T03:50:23.527Z,100538.16
2022-12-11T03:52:29.015Z,100535.44
2022-12-11T03:54:31.954Z,100537.16
2022-12-11T03:56:35.758Z,100538.41
2022-12-11T03:58:37.411Z,100518.38
2022-12-11T04:00:39.070Z,100525.19
2022-12-11T04:02:40.698Z,100537.94
2022-12-11T04:04:42.918Z,100517.13
2022-12-11T04:06:44.515Z,100518.97
2022-12-11T04:08:47.446Z,100521.41
2022-12-11T04:10:49.814Z,100527.00
2022-12-11T04:12:51.453Z,100532.09
2022-12-11T04:14:52.965Z,100534.69
2022-12-11T04:16:55.302Z,100526.69
2022-12-11T04:18:56.872Z,100536.31
2022-12-11T04:20:58.421Z,100535.69
2022-12-11T04:22:59.994Z,100538.06
2022-12-11T04:25:06.264Z,100528.31
2022-12-11T04:27:07.914Z,100526.81
2022-12-11T04:29:09.500Z,100530.28
2022-12-11T04:31:12.225Z,100525.88
2022-12-11T04:33:13.791Z,100526.63
2022-12-11T04:35:15.533Z,100511.00
2022-12-11T04:37:17.162Z,100521.63
2022-12-11T04:39:18.717Z,100516.25
2022-12-11T04:41:21.614Z,100512.97
2022-12-11T04:43:23.484Z,100516.00
2022-12-11T04:45:24.998Z,100513.38
2022-12-11T04:47:26.540Z,100516.16
2022-12-11T04:49:28.112Z,100498.78
2022-12-11T04:51:29.800Z,100496.69
2022-12-11T04:53:31.690Z,100508.97
2022-12-11T04:55:33.537Z,100508.78
2022-12-11T04:57:36.408Z,100516.09
2022-12-11T04:59:38.025Z,100513.69
2022-12-11T05:01:41.366Z,100517.78
2022-12-11T05:03:43.302Z,100514.66
2022-12-11T05:05:47.547Z,100518.88
2022-12-11T05:07:49.101Z,100512.09
2022-12-11T05:09:50.692Z,100511.19
2022-12-11T05:11:52.295Z,100512.88
2022-12-11T05:13:55.247Z,100505.81
2022-12-11T05:15:57.853Z,100507.47
2022-12-11T05:17:59.408Z,100502.81
2022-12-11T05:20:01.078Z,100507.94
2022-12-11T05:22:02.624Z,100504.00
2022-12-11T05:24:04.826Z,100499.41
2022-12-11T05:26:08.211Z,100503.00
2022-12-11T05:28:09.827Z,100510.22
2022-12-11T05:30:13.228Z,100501.34
2022-12-11T05:32:14.776Z,100500.59
2022-12-11T05:34:16.402Z,100503.13
2022-12-11T05:36:20.675Z,100504.66
2022-12-11T05:38:22.761Z,100499.25
2022-12-11T05:40:24.295Z,100495.09
2022-12-11T05:42:29.007Z,100491.28
2022-12-11T05:44:30.975Z,100495.84
2022-12-11T05:46:33.933Z,100492.47
2022-12-11T05:48:36.223Z,100495.31
2022-12-11T05:50:37.772Z,100500.31
2022-12-11T05:52:39.331Z,100501.09
2022-12-11T05:54:40.839Z,100499.25
2022-12-11T05:56:42.761Z,100494.41
2022-12-11T05:58:47.311Z,100482.31
2022-12-11T06:00:48.903Z,100494.53
2022-12-11T06:02:51.964Z,100464.31
2022-12-11T06:04:53.588Z,100485.19
2022-12-11T06:06:55.283Z,100478.97
2022-12-11T06:08:58.573Z,100493.13
2022-12-11T06:11:00.522Z,100491.38
2022-12-11T06:13:02.081Z,100481.59
2022-12-11T06:15:04.009Z,100493.56
2022-12-11T06:17:05.530Z,100484.91
2022-12-11T06:19:13.784Z,100486.66
2022-12-11T06:21:17.047Z,100493.81
2022-12-11T06:23:18.595Z,100495.53
2022-12-11T06:25:20.093Z,100496.50
2022-12-11T06:27:21.644Z,100491.94
2022-12-11T06:29:23.157Z,100486.09
2022-12-11T06:31:24.752Z,100489.56
2022-12-11T06:33:26.561Z,100448.13
2022-12-11T06:35:29.563Z,100483.50
2022-12-11T06:37:31.165Z,100487.00
2022-12-11T06:39:32.848Z,100489.47
2022-12-11T06:41:34.373Z,100486.22
2022-12-11T06:43:40.343Z,100491.34
2022-12-11T06:45:42.171Z,100488.84
2022-12-11T06:47:43.558Z,100497.06
2022-12-11T06:49:45.069Z,100481.00
2022-12-11T06:51:47.971Z,100497.28
2022-12-11T06:53:51.246Z,100504.09
2022-12-11T06:55:52.782Z,100495.91
2022-12-11T06:57:54.599Z,100497.59
2022-12-11T06:59:55.937Z,100512.13
2022-12-11T07:01:57.534Z,100503.69
2022-12-11T07:04:00.082Z,100505.50
2022-12-11T07:06:02.180Z,100509.16
2022-12-11T07:08:05.447Z,100502.72
2022-12-11T07:10:08.872Z,100508.91
2022-12-11T07:12:10.501Z,100501.81
2022-12-11T07:14:12.068Z,100507.03
2022-12-11T07:16:15.563Z,100504.41
2022-12-11T07:18:17.102Z,100518.50
2022-12-11T07:20:18.642Z,100512.47
2022-12-11T07:22:20.222Z,100503.59
2022-12-11T07:24:23.262Z,100505.41
2022-12-11T07:26:25.047Z,100502.84
2022-12-11T07:28:26.654Z,100495.19
2022-12-11T07:30:28.244Z,100504.63
2022-12-11T07:32:29.947Z,100496.78
2022-12-11T07:34:31.631Z,100505.63
2022-12-11T07:36:33.755Z,100510.69
2022-12-11T07:38:35.661Z,100519.41
2022-12-11T07:40:38.397Z,100527.91
2022-12-11T07:42:45.826Z,100514.13
2022-12-11T07:44:48.432Z,100520.28
2022-12-11T07:46:50.115Z,100514.06
2022-12-11T07:48:51.718Z,100516.56
2022-12-11T07:50:53.269Z,100518.53
2022-12-11T07:52:54.852Z,100524.47
2022-12-11T07:54:56.355Z,100518.22
2022-12-11T07:56:59.259Z,100510.09
2022-12-11T07:59:02.542Z,100516.09
2022-12-11T08:01:04.322Z,100521.78
2022-12-11T08:03:05.684Z,100516.69
2022-12-11T08:05:08.729Z,100520.13
2022-12-11T08:07:10.526Z,100515.94
2022-12-11T08:09:19.121Z,100520.88
2022-12-11T08:11:23.080Z,100510.59
2022-12-11T08:13:26.115Z,100507.31
2022-12-11T08:15:27.645Z,100528.97
2022-12-11T08:17:31.916Z,100524.59
2022-12-11T08:19:35.516Z,100525.53
2022-12-11T08:21:37.049Z,100527.16
2022-12-11T08:23:38.839Z,100522.00
2022-12-11T08:25:40.171Z,100524.28
2022-12-11T08:27:41.725Z,100529.56
2022-12-11T08:29:44.715Z,100525.19
2022-12-11T08:31:46.271Z,100531.22
2022-12-11T08:33:48.635Z,100528.00
2022-12-11T08:35:50.288Z,100536.75
2022-12-11T08:37:51.847Z,100538.72
2022-12-11T08:39:53.390Z,100536.91
2022-12-11T08:41:54.907Z,100533.59
2022-12-11T08:43:57.370Z,100534.53
2022-12-11T08:46:00.378Z,100533.31
2022-12-11T08:48:02.278Z,100535.16
2022-12-11T08:50:04.949Z,100535.00
2022-12-11T08:52:07.111Z,100526.53
2022-12-11T08:54:09.866Z,100524.69
2022-12-11T08:56:13.177Z,100528.34
2022-12-11T08:58:14.831Z,100523.88
2022-12-11T09:00:18.099Z,100528.78
2022-12-11T09:02:21.061Z,100519.03
2022-12-11T09:04:22.973Z,100506.66
2022-12-11T09:06:25.259Z,100530.03
2022-12-11T09:08:27.035Z,100531.81
2022-12-11T09:10:28.649Z,100536.41
2022-12-11T09:12:30.230Z,100528.44
2022-12-11T09:14:31.742Z,100530.34
2022-12-11T09:16:33.597Z,100532.91
2022-12-11T09:18:36.366Z,100538.06
2022-12-11T09:20:37.882Z,100535.81
2022-12-11T09:22:39.452Z,100542.53
2022-12-11T09:24:41.069Z,100537.53
2022-12-11T09:26:42.799Z,100534.97
2022-12-11T09:28:46.917Z,100535.94
2022-12-11T09:30:49.400Z,100539.72
2022-12-11T09:32:50.995Z,100530.41
2022-12-11T09:34:53.964Z,100528.50
2022-12-11T09:36:55.527Z,100529.41
2022-12-11T09:39:00.011Z,100524.94
2022-12-11T09:41:02.151Z,100518.66
2022-12-11T09:43:09.181Z,100524.53
2022-12-11T09:45:14.028Z,100519.84
2022-12-11T09:47:21.005Z,100515.03
2022-12-11T09:49:28.553Z,100512.28
2022-12-11T09:51:41.139Z,100507.91
2022-12-11T09:53:42.732Z,100505.28
2022-12-11T09:55:52.559Z,100499.47
2022-12-11T09:58:02.470Z,100503.41
2022-12-11T10:00:24.337Z,100500.94
2022-12-11T10:02:38.322Z,100499.38
2022-12-11T10:04:49.955Z,100488.75
2022-12-11T10:07:03.592Z,100501.84
2022-12-11T10:09:17.060Z,100500.81
2022-12-11T10:11:43.937Z,100494.97
2022-12-11T10:13:55.043Z,100495.78
2022-12-11T10:16:00.541Z,100473.00
2022-12-11T10:18:05.974Z,100489.56
2022-12-11T10:20:26.319Z,100481.47
2022-12-11T10:22:32.611Z,100483.50
2022-12-11T10:25:10.111Z,100479.06
2022-12-11T10:27:14.622Z,100469.25
2022-12-11T10:29:21.912Z,100466.91
2022-12-11T10:31:34.871Z,100469.50
2022-12-11T10:33:46.305Z,100464.34
2022-12-11T10:35:51.334Z,100481.03
2022-12-11T10:37:57.506Z,100478.28
2022-12-11T10:39:59.060Z,100473.25
2022-12-11T10:42:10.618Z,100472.97
2022-12-11T10:44:16.140Z,100471.00
2022-12-11T10:46:20.110Z,100456.28
2022-12-11T10:48:22.161Z,100460.56
2022-12-11T10:50:25.839Z,100463.34
2022-12-11T10:52:33.134Z,100461.00
2022-12-11T10:54:39.793Z,100467.56
2022-12-11T10:56:41.374Z,100467.72
2022-12-11T10:58:50.055Z,100465.47
2022-12-11T11:01:03.436Z,100465.94
2022-12-11T11:03:07.690Z,100441.34
2022-12-11T11:05:14.999Z,100443.34
2022-12-11T11:07:20.540Z,100447.53
2022-12-11T11:09:29.978Z,100450.81
2022-12-11T11:11:36.562Z,100449.63
2022-12-11T11:13:38.212Z,100453.50
2022-12-11T11:15:39.896Z,100449.03
2022-12-11T11:17:52.966Z,100452.97
2022-12-11T11:19:59.773Z,100448.56
2022-12-11T11:22:05.379Z,100445.94
2022-12-11T11:24:07.039Z,100446.44
2022-12-11T11:26:08.793Z,100441.06
2022-12-11T11:28:17.933Z,100440.66
2022-12-11T11:30:22.067Z,100437.72
2022-12-11T11:32:33.722Z,100433.38
2022-12-11T11:34:35.262Z,100419.91
2022-12-11T11:36:37.984Z,100420.03
2022-12-11T11:38:47.642Z,100422.53
2022-12-11T11:41:00.747Z,100423.94
2022-12-11T11:43:16.283Z,100415.25
2022-12-11T11:45:22.847Z,100419.34
2022-12-11T11:47:27.619Z,100417.50
2022-12-11T11:49:44.483Z,100410.22
2022-12-11T11:51:51.396Z,100403.56
2022-12-11T11:53:56.756Z,100405.94
2022-12-11T11:56:05.581Z,100408.28
2022-12-11T11:58:12.742Z,100404.97
2022-12-11T12:00:22.406Z,100402.16
2022-12-11T12:02:24.091Z,100400.75
2022-12-11T12:04:31.498Z,100414.25
2022-12-11T12:06:50.937Z,100408.00
2022-12-11T12:09:00.880Z,100387.91
2022-12-11T12:11:09.858Z,100371.47
2022-12-11T12:13:48.017Z,100409.03
2022-12-11T12:15:50.132Z,100394.84
2022-12-11T12:17:56.188Z,100397.22
2022-12-11T12:20:11.098Z,100403.22
2022-12-11T12:22:34.923Z,100396.63
2022-12-11T12:24:48.645Z,100396.63
2022-12-11T12:26:55.903Z,100392.34
2022-12-11T12:29:12.967Z,100403.63
2022-12-11T12:31:30.696Z,100408.72
2022-12-11T12:33:45.351Z,100403.34
2022-12-11T12:35:55.753Z,100403.97
2022-12-11T12:38:04.580Z,100407.44
2022-12-11T12:40:18.943Z,100405.66
2022-12-11T12:42:33.279Z,100404.69
2022-12-11T12:44:41.628Z,100406.75
2022-12-11T12:46:51.741Z,100399.63
2022-12-11T12:48:56.303Z,100403.06
2022-12-11T12:50:58.198Z,100399.03
2022-12-11T12:53:00.524Z,100392.84
2022-12-11T12:55:15.677Z,100395.81
2022-12-11T12:57:17.606Z,100385.72
2022-12-11T12:59:21.514Z,100360.69
2022-12-11T13:01:25.948Z,100379.63
2022-12-11T13:03:32.836Z,100392.06
2022-12-11T13:05:34.723Z,100381.13
2022-12-11T13:07:37.565Z,100381.06
2022-12-11T13:09:39.312Z,100383.53
2022-12-11T13:11:41.056Z,100378.13
2022-12-11T13:13:48.980Z,100373.97
2022-12-11T13:15:53.365Z,100387.31
2022-12-11T13:17:55.044Z,100374.84
2022-12-11T13:20:17.224Z,100366.94
2022-12-11T13:22:23.501Z,100376.78
2022-12-11T13:24:27.019Z,100376.78
2022-12-11T13:26:30.844Z,100375.81
2022-12-11T13:28:46.814Z,100376.72
2022-12-11T13:30:57.429Z,100376.06
2022-12-11T13:33:03.664Z,100382.88
2022-12-11T13:35:06.937Z,100369.31
2022-12-11T13:37:25.047Z,100379.53
2022-12-11T13:39:29.091Z,100370.28
2022-12-11T13:41:35.051Z,100376.78
2022-12-11T13:43:40.949Z,100364.19
2022-12-11T13:45:46.438Z,100378.19
2022-12-11T13:47:48.164Z,100372.19
2022-12-11T13:49:54.971Z,100362.00
2022-12-11T13:51:58.572Z,100376.16
2022-12-11T13:54:17.090Z,100367.38
2022-12-11T13:56:21.403Z,100358.72
2022-12-11T13:58:23.673Z,100369.25
2022-12-11T14:00:27.591Z,100369.25
2022-12-11T14:02:32.540Z,100364.75
2022-12-11T14:04:34.947Z,100365.44
2022-12-11T14:06:38.879Z,100361.13
2022-12-11T14:08:44.021Z,100361.75
2022-12-11T14:10:52.118Z,100366.47
2022-12-11T14:12:55.982Z,100368.63
2022-12-11T14:14:59.441Z,100372.03
2022-12-11T14:17:01.156Z,100367.81
2022-12-11T14:19:03.552Z,100365.50
2022-12-11T14:21:06.652Z,100370.00
2022-12-11T14:23:16.642Z,100365.13
2022-12-11T14:25:22.226Z,100366.25
2022-12-11T14:27:26.248Z,100370.69
2022-12-11T14:29:30.422Z,100374.78
2022-12-11T14:31:36.160Z,100369.81
2022-12-11T14:33:43.780Z,100373.31
2022-12-11T14:35:47.026Z,100370.13
2022-12-11T14:37:48.995Z,100376.91
2022-12-11T14:39:57.097Z,100371.75
2022-12-11T14:42:03.154Z,100365.03
2022-12-11T14:44:08.444Z,100359.06
2022-12-11T14:46:16.936Z,100358.84
2022-12-11T14:48:22.930Z,100351.28
2022-12-11T14:50:30.634Z,100353.13
2022-12-11T14:52:36.551Z,100353.13
2022-12-11T14:54:43.823Z,100357.75
2022-12-11T14:56:46.264Z,100358.72
2022-12-11T14:58:55.418Z,100356.75
2022-12-11T15:01:00.311Z,100356.81
2022-12-11T15:03:03.987Z,100367.50
2022-12-11T15:05:13.597Z,100360.28
2022-12-11T15:07:20.625Z,100358.78
2022-12-11T15:09:26.757Z,100358.19
2022-12-11T15:11:31.916Z,100358.44
2022-12-11T15:13:35.315Z,100358.09
2022-12-11T15:15:44.945Z,100359.06
2022-12-11T15:17:52.903Z,100358.06
2022-12-11T15:20:01.891Z,100359.59
2022-12-11T15:22:05.749Z,100369.25
2022-12-11T15:24:23.290Z,100369.97
2022-12-11T15:26:33.855Z,100375.03
2022-12-11T15:28:36.986Z,100360.78
2022-12-11T15:30:38.568Z,100377.19
2022-12-11T15:32:40.410Z,100364.06
2022-12-11T15:34:44.854Z,100360.78
2022-12-11T15:36:46.623Z,100367.56
2022-12-11T15:38:48.125Z,100370.63
2022-12-11T15:40:49.720Z,100363.84
2022-12-11T15:42:52.311Z,100380.22
2022-12-11T15:44:55.557Z,100361.38
2022-12-11T15:46:57.123Z,100370.56
2022-12-11T15:48:58.815Z,100373.50
2022-12-11T15:51:01.994Z,100364.81
2022-12-11T15:53:03.754Z,100361.19
2022-12-11T15:55:05.556Z,100367.25
2022-12-11T15:57:14.351Z,100363.66
2022-12-11T15:59:16.352Z,100368.63
2022-12-11T16:01:17.996Z,100354.78
2022-12-11T16:03:20.945Z,100368.13
2022-12-11T16:05:23.038Z,100370.63
2022-12-11T16:07:26.477Z,100366.94
2022-12-11T16:09:28.023Z,100369.56
2022-12-11T16:11:29.614Z,100354.31
2022-12-11T16:13:31.223Z,100365.38
2022-12-11T16:15:32.838Z,100365.66
2022-12-11T16:17:34.587Z,100370.06
2022-12-11T16:19:37.195Z,100373.91
2022-12-11T16:21:38.769Z,100377.41
2022-12-11T16:23:41.779Z,100352.56
2022-12-11T16:25:45.004Z,100373.97
2022-12-11T16:27:46.796Z,100375.59
2022-12-11T16:29:48.215Z,100372.34
2022-12-11T16:31:49.900Z,100368.25
2022-12-11T16:33:51.409Z,100368.06
2022-12-11T16:35:52.960Z,100371.41
2022-12-11T16:37:55.404Z,100375.81
2022-12-11T16:39:58.348Z,100372.34
2022-12-11T16:41:59.975Z,100365.44
2022-12-11T16:44:01.610Z,100368.91
2022-12-11T16:46:03.624Z,100372.31
2022-12-11T16:48:05.569Z,100377.41
2022-12-11T16:50:07.765Z,100376.69
2022-12-11T16:52:09.674Z,100361.66
2022-12-11T16:54:12.089Z,100370.44
2022-12-11T16:56:15.065Z,100347.28
2022-12-11T16:58:16.622Z,100366.47
2022-12-11T17:00:18.405Z,100358.06
2022-12-11T17:02:19.878Z,100357.25
2022-12-11T17:04:21.425Z,100362.84
2022-12-11T17:06:23.348Z,100361.66
2022-12-11T17:08:25.881Z,100371.25
2022-12-11T17:10:27.462Z,100371.50
2022-12-11T17:12:30.623Z,100349.84
2022-12-11T17:14:32.224Z,100369.44
2022-12-11T17:16:34.063Z,100369.56
2022-12-11T17:18:36.344Z,100372.16
2022-12-11T17:20:40.520Z,100367.88
2022-12-11T17:22:42.054Z,100377.88
2022-12-11T17:24:43.942Z,100363.06
2022-12-11T17:26:45.353Z,100364.78
2022-12-11T17:28:48.264Z,100355.75
2022-12-11T17:30:49.900Z,100353.28
2022-12-11T17:32:51.651Z,100359.59
2022-12-11T17:34:53.158Z,100355.53
2022-12-11T17:36:54.767Z,100351.91
2022-12-11T17:38:56.348Z,100349.44
2022-12-11T17:40:58.145Z,100351.88
2022-12-11T17:42:59.626Z,100357.06
2022-12-11T17:45:02.617Z,100348.41
2022-12-11T17:47:10.614Z,100355.56
2022-12-11T17:49:12.776Z,100353.19
2022-12-11T17:51:16.145Z,100356.94
2022-12-11T17:53:19.682Z,100348.47
2022-12-11T17:55:21.355Z,100351.81
2022-12-11T17:57:22.971Z,100351.81
2022-12-11T17:59:24.571Z,100359.69
2022-12-11T18:01:27.618Z,100353.59
2022-12-11T18:03:29.329Z,100355.25
2022-12-11T18:05:31.006Z,100355.38
2022-12-11T18:07:32.567Z,100354.66
2022-12-11T18:09:34.181Z,100350.56
2022-12-11T18:11:35.937Z,100355.16
2022-12-11T18:13:38.649Z,100322.00
2022-12-11T18:15:40.357Z,100344.16
2022-12-11T18:17:43.375Z,100356.81
2022-12-11T18:19:46.318Z,100349.53
2022-12-11T18:21:48.147Z,100357.47
2022-12-11T18:23:49.783Z,100348.84
2022-12-11T18:25:51.497Z,100356.00
2022-12-11T18:27:53.310Z,100351.94
2022-12-11T18:29:54.756Z,100359.75
2022-12-11T18:31:56.447Z,100353.47
2022-12-11T18:33:59.396Z,100354.44
2022-12-11T18:36:00.951Z,100357.53
2022-12-11T18:38:02.608Z,100352.94
2022-12-11T18:40:05.008Z,100359.25
2022-12-11T18:42:34.320Z,100359.13
2022-12-11T18:44:28.144Z,100353.34
2022-12-11T18:46:29.752Z,100358.78
2022-12-11T18:48:31.327Z,100355.56
2022-12-11T18:50:34.932Z,100357.81
2022-12-11T18:52:36.563Z,100356.94
2022-12-11T18:54:38.534Z,100353.94
2022-12-11T18:56:40.112Z,100362.41
2022-12-11T18:58:42.436Z,100350.09
2022-12-11T19:00:44.794Z,100350.03
2022-12-11T19:02:46.785Z,100355.78
2022-12-11T19:04:48.366Z,100351.69
2022-12-11T19:06:51.393Z,100340.34
2022-12-11T19:08:53.006Z,100347.94
2022-12-11T19:10:54.618Z,100339.63
2022-12-11T19:12:56.209Z,100347.84
2022-12-11T19:14:57.785Z,100342.25
2022-12-11T19:16:59.445Z,100351.94
2022-12-11T19:19:02.661Z,100350.09
2022-12-11T19:21:09.360Z,100348.13
2022-12-11T19:23:12.414Z,100359.34
2022-12-11T19:25:14.350Z,100341.91
2022-12-11T19:27:16.311Z,100343.50
2022-12-11T19:29:20.065Z,100349.41
2022-12-11T19:31:23.204Z,100344.25
2022-12-11T19:33:24.994Z,100346.56
2022-12-11T19:35:26.550Z,100341.78
2022-12-11T19:37:28.109Z,100354.03
2022-12-11T19:39:31.091Z,100352.25
2022-12-11T19:41:32.847Z,100351.50
2022-12-11T19:43:34.914Z,100359.22
2022-12-11T19:45:37.055Z,100360.50
2022-12-11T19:47:38.693Z,100363.19
2022-12-11T19:49:40.314Z,100358.94
2022-12-11T19:51:42.788Z,100354.16
2022-12-11T19:53:45.632Z,100343.56
2022-12-11T19:55:50.739Z,100349.00
2022-12-11T19:57:52.358Z,100352.53
2022-12-11T19:59:57.182Z,100355.16
2022-12-11T20:01:59.096Z,100357.75
2022-12-11T20:04:03.471Z,100344.66
2022-12-11T20:06:07.593Z,100350.00
2022-12-11T20:08:35.710Z,100350.41
2022-12-11T20:10:30.716Z,100354.03
2022-12-11T20:12:33.710Z,100356.66
2022-12-11T20:14:36.298Z,100327.09
2022-12-11T20:19:00.002Z,100356.13
2022-12-11T20:21:02.012Z,100350.84
2022-12-11T20:23:03.604Z,100349.53
2022-12-11T20:25:06.074Z,100369.13
2022-12-11T20:27:07.631Z,100367.34
2022-12-11T20:29:12.556Z,100353.75
2022-12-11T20:31:20.022Z,100364.19
2022-12-11T20:33:22.051Z,100361.63
2022-12-11T20:35:23.604Z,100359.41
2022-12-11T20:37:25.186Z,100359.97
2022-12-11T20:39:26.788Z,100365.97
2022-12-11T20:41:28.400Z,100359.03
2022-12-11T20:43:30.192Z,100355.94
2022-12-11T20:45:32.943Z,100356.75
2022-12-11T20:47:34.693Z,100351.28
2022-12-11T20:49:36.371Z,100363.03
2022-12-11T20:51:38.320Z,100370.44
2022-12-11T20:53:40.761Z,100358.16
2022-12-11T20:55:43.265Z,100357.50
2022-12-11T20:57:45.337Z,100358.16
2022-12-11T20:59:47.382Z,100355.41
2022-12-11T21:01:50.237Z,100355.16
2022-12-11T21:03:52.214Z,100359.63
2022-12-11T21:05:53.923Z,100359.38
2022-12-11T21:07:55.611Z,100353.59
2022-12-11T21:09:57.017Z,100358.16
2022-12-11T21:11:58.821Z,100347.69
2022-12-11T21:14:00.139Z,100359.63
2022-12-11T21:16:04.822Z,100351.88
2022-12-11T21:18:08.208Z,100354.91
2022-12-11T21:20:10.723Z,100328.44
2022-12-11T21:22:12.284Z,100361.09
2022-12-11T21:24:16.055Z,100359.63
2022-12-11T21:26:17.708Z,100353.81
2022-12-11T21:28:19.783Z,100355.38
2022-12-11T21:30:21.714Z,100300.94
2022-12-11T21:32:23.368Z,100357.38
2022-12-11T21:34:26.759Z,100365.22
2022-12-11T21:36:28.417Z,100355.03
2022-12-11T21:38:30.113Z,100345.75
2022-12-11T21:40:31.705Z,100350.88
2022-12-11T21:42:33.241Z,100350.88
2022-12-11T21:46:56.367Z,100346.75
2022-12-11T21:48:58.314Z,100337.59
2022-12-11T21:51:07.144Z,100340.06
2022-12-11T21:53:08.668Z,100335.84
2022-12-11T21:55:11.523Z,100316.16
2022-12-11T21:57:13.295Z,100342.13
2022-12-11T21:59:15.030Z,100338.81
2022-12-11T22:01:19.196Z,100329.00
2022-12-11T22:03:20.742Z,100326.50
2022-12-11T22:05:22.361Z,100328.19
2022-12-11T22:07:25.297Z,100327.22
2022-12-11T22:09:26.850Z,100319.50
2022-12-11T22:11:30.988Z,100321.25
2022-12-11T22:13:32.639Z,100317.59
2022-12-11T22:15:34.252Z,100319.06
2022-12-11T22:17:35.872Z,100330.94
2022-12-11T22:19:37.463Z,100324.81
2022-12-11T22:21:39.286Z,100321.44
2022-12-11T22:23:42.495Z,100323.84
2022-12-11T22:25:44.067Z,100319.47
2022-12-11T22:27:45.655Z,100322.50
2022-12-11T22:29:47.194Z,100317.00
2022-12-11T22:31:48.805Z,100317.16
2022-12-11T22:33:51.369Z,100308.47
2022-12-11T22:35:56.866Z,100311.56
2022-12-11T22:37:58.704Z,100311.56
2022-12-11T22:40:01.513Z,100313.72
2022-12-11T22:42:03.085Z,100320.31
2022-12-11T22:44:04.808Z,100332.44
2022-12-11T22:46:06.510Z,100330.75
2022-12-11T22:48:08.410Z,100337.97
2022-12-11T22:50:11.752Z,100333.50
2022-12-11T22:52:13.277Z,100336.59
2022-12-11T22:54:14.831Z,100339.84
2022-12-11T22:56:17.952Z,100339.88
2022-12-11T22:58:21.857Z,100336.31
2022-12-11T23:00:24.097Z,100345.13
2022-12-11T23:02:25.690Z,100350.03
2022-12-11T23:04:27.286Z,100351.03
2022-12-11T23:06:28.867Z,100351.47
2022-12-11T23:08:30.556Z,100346.97
2022-12-11T23:10:31.985Z,100346.84
2022-12-11T23:12:35.990Z,100349.66
2022-12-11T23:14:37.995Z,100356.44
2022-12-11T23:16:39.664Z,100362.50
2022-12-11T23:18:41.253Z,100353.00
2022-12-11T23:20:42.944Z,100359.19
2022-12-11T23:22:44.486Z,100363.81
2022-12-11T23:24:46.103Z,100360.75
2022-12-11T23:26:47.637Z,100355.09
2022-12-11T23:28:50.677Z,100363.34
2022-12-11T23:30:52.401Z,100362.03
2022-12-11T23:32:53.808Z,100361.91
2022-12-11T23:34:55.332Z,100354.31
2022-12-11T23:36:56.869Z,100361.47
2022-12-11T23:38:58.461Z,100352.72
2022-12-11T23:41:01.259Z,100349.78